sensor_id;sensor_type;location;lat;lon;timestamp;P1;durP1;ratioP1;P2;durP2;ratioP2
77042;SDS011;65975;53.936;27.540;2022-12-18T00:01:35;18.77;;;9.70;;
77042;SDS011;65975;53.936;27.540;2022-12-18T00:04:05;22.37;;;11.53;;
77042;SDS011;65975;53.936;27.540;2022-12-18T00:06:32;21.70;;;10.93;;
77042;SDS011;65975;53.936;27.540;2022-12-18T00:09:00;23.27;;;12.23;;
77042;SDS011;65975;53.936;27.540;2022-12-18T00:11:27;21.73;;;11.83;;
77042;SDS011;65975;53.936;27.540;2022-12-18T00:13:55;20.73;;;10.47;;
77042;SDS011;65975;53.936;27.540;2022-12-18T00:16:21;22.57;;;12.40;;
77042;SDS011;65975;53.936;27.540;2022-12-18T00:18:49;21.60;;;11.33;;
77042;SDS011;65975;53.936;27.540;2022-12-18T00:21:15;20.60;;;10.93;;
77042;SDS011;65975;53.936;27.540;2022-12-18T00:23:42;22.43;;;12.43;;
77042;SDS011;65975;53.936;27.540;2022-12-18T00:26:16;20.57;;;11.87;;
77042;SDS011;65975;53.936;27.540;2022-12-18T00:28:44;21.90;;;11.00;;
77042;SDS011;65975;53.936;27.540;2022-12-18T00:31:11;27.33;;;12.83;;
77042;SDS011;65975;53.936;27.540;2022-12-18T00:33:39;20.67;;;10.57;;
77042;SDS011;65975;53.936;27.540;2022-12-18T00:36:05;27.00;;;12.30;;
77042;SDS011;65975;53.936;27.540;2022-12-18T00:38:33;24.07;;;12.03;;
77042;SDS011;65975;53.936;27.540;2022-12-18T00:40:58;21.80;;;10.00;;
77042;SDS011;65975;53.936;27.540;2022-12-18T00:43:24;20.37;;;11.27;;
77042;SDS011;65975;53.936;27.540;2022-12-18T00:45:49;20.97;;;10.57;;
77042;SDS011;65975;53.936;27.540;2022-12-18T00:48:15;20.90;;;11.60;;
77042;SDS011;65975;53.936;27.540;2022-12-18T00:50:40;25.27;;;12.27;;
77042;SDS011;65975;53.936;27.540;2022-12-18T00:53:15;25.90;;;11.97;;
77042;SDS011;65975;53.936;27.540;2022-12-18T00:55:41;27.53;;;12.70;;
77042;SDS011;65975;53.936;27.540;2022-12-18T00:58:08;21.63;;;10.67;;
77042;SDS011;65975;53.936;27.540;2022-12-18T01:00:34;17.37;;;9.83;;
77042;SDS011;65975;53.936;27.540;2022-12-18T01:03:00;22.80;;;12.47;;
77042;SDS011;65975;53.936;27.540;2022-12-18T01:05:25;22.20;;;11.03;;
77042;SDS011;65975;53.936;27.540;2022-12-18T01:07:51;22.77;;;11.17;;
77042;SDS011;65975;53.936;27.540;2022-12-18T01:10:16;22.53;;;12.83;;
77042;SDS011;65975;53.936;27.540;2022-12-18T01:12:42;20.43;;;11.87;;
77042;SDS011;65975;53.936;27.540;2022-12-18T01:15:09;20.93;;;12.03;;
77042;SDS011;65975;53.936;27.540;2022-12-18T01:17:36;24.20;;;10.20;;
77042;SDS011;65975;53.936;27.540;2022-12-18T01:20:02;19.40;;;11.47;;
77042;SDS011;65975;53.936;27.540;2022-12-18T01:22:28;20.60;;;10.23;;
77042;SDS011;65975;53.936;27.540;2022-12-18T01:24:53;19.30;;;10.47;;
77042;SDS011;65975;53.936;27.540;2022-12-18T01:27:19;24.53;;;11.90;;
77042;SDS011;65975;53.936;27.540;2022-12-18T01:29:45;19.43;;;10.87;;
77042;SDS011;65975;53.936;27.540;2022-12-18T01:32:10;19.77;;;9.37;;
77042;SDS011;65975;53.936;27.540;2022-12-18T01:34:36;24.17;;;13.40;;
77042;SDS011;65975;53.936;27.540;2022-12-18T01:37:03;20.40;;;11.90;;
77042;SDS011;65975;53.936;27.540;2022-12-18T01:39:29;20.97;;;12.07;;
77042;SDS011;65975;53.936;27.540;2022-12-18T01:41:57;20.90;;;10.80;;
77042;SDS011;65975;53.936;27.540;2022-12-18T01:49:48;17.83;;;10.70;;
77042;SDS011;65975;53.936;27.540;2022-12-18T01:52:14;27.07;;;13.67;;
77042;SDS011;65975;53.936;27.540;2022-12-18T01:54:40;21.57;;;9.80;;
77042;SDS011;65975;53.936;27.540;2022-12-18T01:57:06;18.97;;;10.63;;
77042;SDS011;65975;53.936;27.540;2022-12-18T01:59:32;24.23;;;12.77;;
77042;SDS011;65975;53.936;27.540;2022-12-18T02:01:59;20.23;;;10.30;;
77042;SDS011;65975;53.936;27.540;2022-12-18T02:04:26;21.80;;;12.43;;
77042;SDS011;65975;53.936;27.540;2022-12-18T02:12:30;16.73;;;10.17;;
77042;SDS011;65975;53.936;27.540;2022-12-18T02:15:15;20.73;;;11.40;;
77042;SDS011;65975;53.936;27.540;2022-12-18T02:17:54;13.27;;;8.17;;
77042;SDS011;65975;53.936;27.540;2022-12-18T02:20:29;21.73;;;11.37;;
77042;SDS011;65975;53.936;27.540;2022-12-18T02:23:12;21.27;;;10.70;;
77042;SDS011;65975;53.936;27.540;2022-12-18T02:26:05;19.30;;;10.10;;
77042;SDS011;65975;53.936;27.540;2022-12-18T02:29:00;15.53;;;10.03;;
77042;SDS011;65975;53.936;27.540;2022-12-18T02:31:32;18.10;;;9.13;;
77042;SDS011;65975;53.936;27.540;2022-12-18T02:34:04;18.93;;;9.10;;
77042;SDS011;65975;53.936;27.540;2022-12-18T02:36:32;16.40;;;10.30;;
77042;SDS011;65975;53.936;27.540;2022-12-18T02:39:01;18.13;;;10.43;;
77042;SDS011;65975;53.936;27.540;2022-12-18T02:41:29;19.47;;;10.77;;
77042;SDS011;65975;53.936;27.540;2022-12-18T02:43:57;19.67;;;11.20;;
77042;SDS011;65975;53.936;27.540;2022-12-18T02:48:53;17.17;;;9.37;;
77042;SDS011;65975;53.936;27.540;2022-12-18T02:51:32;19.10;;;9.00;;
77042;SDS011;65975;53.936;27.540;2022-12-18T02:54:14;20.17;;;10.90;;
77042;SDS011;65975;53.936;27.540;2022-12-18T02:56:53;12.43;;;7.27;;
77042;SDS011;65975;53.936;27.540;2022-12-18T02:59:34;15.43;;;10.40;;
77042;SDS011;65975;53.936;27.540;2022-12-18T03:07:41;12.83;;;6.43;;
77042;SDS011;65975;53.936;27.540;2022-12-18T03:10:13;14.53;;;8.60;;
77042;SDS011;65975;53.936;27.540;2022-12-18T03:12:43;15.53;;;8.93;;
77042;SDS011;65975;53.936;27.540;2022-12-18T03:15:22;15.93;;;9.23;;
77042;SDS011;65975;53.936;27.540;2022-12-18T03:17:52;15.20;;;9.30;;
77042;SDS011;65975;53.936;27.540;2022-12-18T03:20:22;14.80;;;8.90;;
77042;SDS011;65975;53.936;27.540;2022-12-18T03:22:51;17.73;;;10.43;;
77042;SDS011;65975;53.936;27.540;2022-12-18T03:25:22;16.03;;;7.87;;
77042;SDS011;65975;53.936;27.540;2022-12-18T03:27:51;14.07;;;8.97;;
77042;SDS011;65975;53.936;27.540;2022-12-18T03:30:21;15.17;;;9.33;;
77042;SDS011;65975;53.936;27.540;2022-12-18T03:32:48;15.23;;;8.93;;
77042;SDS011;65975;53.936;27.540;2022-12-18T03:35:24;18.43;;;10.03;;
77042;SDS011;65975;53.936;27.540;2022-12-18T03:37:53;15.23;;;9.03;;
77042;SDS011;65975;53.936;27.540;2022-12-18T03:40:20;19.17;;;9.73;;
77042;SDS011;65975;53.936;27.540;2022-12-18T03:42:52;12.07;;;7.30;;
77042;SDS011;65975;53.936;27.540;2022-12-18T03:45:29;12.47;;;6.90;;
77042;SDS011;65975;53.936;27.540;2022-12-18T03:48:00;10.97;;;6.70;;
77042;SDS011;65975;53.936;27.540;2022-12-18T03:55:38;11.93;;;6.77;;
77042;SDS011;65975;53.936;27.540;2022-12-18T03:58:06;13.07;;;7.93;;
77042;SDS011;65975;53.936;27.540;2022-12-18T04:00:33;11.50;;;7.00;;
77042;SDS011;65975;53.936;27.540;2022-12-18T04:02:59;11.93;;;8.40;;
77042;SDS011;65975;53.936;27.540;2022-12-18T04:05:27;10.20;;;6.20;;
77042;SDS011;65975;53.936;27.540;2022-12-18T04:07:53;9.90;;;6.53;;
77042;SDS011;65975;53.936;27.540;2022-12-18T04:10:20;13.00;;;7.00;;
77042;SDS011;65975;53.936;27.540;2022-12-18T04:12:45;11.37;;;7.43;;
77042;SDS011;65975;53.936;27.540;2022-12-18T04:15:11;11.93;;;5.93;;
77042;SDS011;65975;53.936;27.540;2022-12-18T04:17:38;14.17;;;7.43;;
77042;SDS011;65975;53.936;27.540;2022-12-18T04:20:08;11.63;;;7.30;;
77042;SDS011;65975;53.936;27.540;2022-12-18T04:22:34;8.57;;;5.93;;
77042;SDS011;65975;53.936;27.540;2022-12-18T04:25:00;13.30;;;7.83;;
77042;SDS011;65975;53.936;27.540;2022-12-18T04:27:25;12.77;;;6.53;;
77042;SDS011;65975;53.936;27.540;2022-12-18T04:29:51;12.83;;;6.83;;
77042;SDS011;65975;53.936;27.540;2022-12-18T04:32:16;11.07;;;6.77;;
77042;SDS011;65975;53.936;27.540;2022-12-18T04:34:42;11.40;;;6.67;;
77042;SDS011;65975;53.936;27.540;2022-12-18T04:37:07;11.90;;;6.83;;
77042;SDS011;65975;53.936;27.540;2022-12-18T04:39:33;11.53;;;7.17;;
77042;SDS011;65975;53.936;27.540;2022-12-18T04:42:02;12.03;;;7.20;;
77042;SDS011;65975;53.936;27.540;2022-12-18T04:44:27;11.17;;;7.00;;
77042;SDS011;65975;53.936;27.540;2022-12-18T04:46:53;15.73;;;8.27;;
77042;SDS011;65975;53.936;27.540;2022-12-18T04:49:18;13.77;;;7.87;;
77042;SDS011;65975;53.936;27.540;2022-12-18T04:51:44;13.00;;;6.40;;
77042;SDS011;65975;53.936;27.540;2022-12-18T04:54:09;11.60;;;7.47;;
77042;SDS011;65975;53.936;27.540;2022-12-18T04:56:35;10.57;;;6.27;;
77042;SDS011;65975;53.936;27.540;2022-12-18T04:59:00;13.43;;;6.97;;
77042;SDS011;65975;53.936;27.540;2022-12-18T05:01:26;12.83;;;7.23;;
77042;SDS011;65975;53.936;27.540;2022-12-18T05:03:51;9.20;;;6.07;;
77042;SDS011;65975;53.936;27.540;2022-12-18T05:06:17;11.77;;;7.17;;
77042;SDS011;65975;53.936;27.540;2022-12-18T05:08:43;13.43;;;7.90;;
77042;SDS011;65975;53.936;27.540;2022-12-18T05:11:10;15.57;;;8.07;;
77042;SDS011;65975;53.936;27.540;2022-12-18T05:13:40;14.40;;;7.97;;
77042;SDS011;65975;53.936;27.540;2022-12-18T05:16:07;12.13;;;7.00;;
77042;SDS011;65975;53.936;27.540;2022-12-18T05:18:33;12.67;;;8.00;;
77042;SDS011;65975;53.936;27.540;2022-12-18T05:20:59;12.10;;;7.70;;
77042;SDS011;65975;53.936;27.540;2022-12-18T05:23:26;12.83;;;7.70;;
77042;SDS011;65975;53.936;27.540;2022-12-18T05:25:56;10.27;;;6.50;;
77042;SDS011;65975;53.936;27.540;2022-12-18T05:28:26;13.18;;;7.85;;
77042;SDS011;65975;53.936;27.540;2022-12-18T05:30:55;12.47;;;7.40;;
77042;SDS011;65975;53.936;27.540;2022-12-18T05:33:22;16.00;;;7.83;;
77042;SDS011;65975;53.936;27.540;2022-12-18T05:35:53;19.07;;;11.67;;
77042;SDS011;65975;53.936;27.540;2022-12-18T05:38:21;14.87;;;8.00;;
77042;SDS011;65975;53.936;27.540;2022-12-18T05:40:48;14.93;;;7.90;;
77042;SDS011;65975;53.936;27.540;2022-12-18T05:43:14;12.97;;;8.93;;
77042;SDS011;65975;53.936;27.540;2022-12-18T05:45:40;13.80;;;6.83;;
77042;SDS011;65975;53.936;27.540;2022-12-18T05:48:06;10.47;;;6.57;;
77042;SDS011;65975;53.936;27.540;2022-12-18T05:50:35;10.83;;;6.70;;
77042;SDS011;65975;53.936;27.540;2022-12-18T05:53:02;12.40;;;7.00;;
77042;SDS011;65975;53.936;27.540;2022-12-18T05:55:28;12.93;;;7.33;;
77042;SDS011;65975;53.936;27.540;2022-12-18T05:57:54;16.13;;;8.73;;
77042;SDS011;65975;53.936;27.540;2022-12-18T06:00:19;12.10;;;7.63;;
77042;SDS011;65975;53.936;27.540;2022-12-18T06:02:48;13.93;;;7.73;;
77042;SDS011;65975;53.936;27.540;2022-12-18T06:05:13;11.17;;;6.10;;
77042;SDS011;65975;53.936;27.540;2022-12-18T06:07:39;10.67;;;6.83;;
77042;SDS011;65975;53.936;27.540;2022-12-18T06:10:04;9.13;;;5.03;;
77042;SDS011;65975;53.936;27.540;2022-12-18T06:12:30;10.97;;;7.50;;
77042;SDS011;65975;53.936;27.540;2022-12-18T06:14:58;12.03;;;6.37;;
77042;SDS011;65975;53.936;27.540;2022-12-18T06:17:27;10.77;;;7.27;;
77042;SDS011;65975;53.936;27.540;2022-12-18T06:19:56;9.87;;;5.53;;
77042;SDS011;65975;53.936;27.540;2022-12-18T06:22:22;12.23;;;7.17;;
77042;SDS011;65975;53.936;27.540;2022-12-18T06:24:48;12.07;;;6.47;;
77042;SDS011;65975;53.936;27.540;2022-12-18T06:27:13;11.10;;;6.37;;
77042;SDS011;65975;53.936;27.540;2022-12-18T06:29:39;11.03;;;6.17;;
77042;SDS011;65975;53.936;27.540;2022-12-18T06:32:05;11.53;;;6.77;;
77042;SDS011;65975;53.936;27.540;2022-12-18T06:34:31;10.53;;;6.87;;
77042;SDS011;65975;53.936;27.540;2022-12-18T06:36:57;15.10;;;6.40;;
77042;SDS011;65975;53.936;27.540;2022-12-18T06:39:23;16.77;;;9.00;;
77042;SDS011;65975;53.936;27.540;2022-12-18T06:41:48;12.23;;;7.77;;
77042;SDS011;65975;53.936;27.540;2022-12-18T06:44:14;11.03;;;7.30;;
77042;SDS011;65975;53.936;27.540;2022-12-18T06:46:39;13.83;;;8.17;;
77042;SDS011;65975;53.936;27.540;2022-12-18T06:49:05;14.27;;;7.37;;
77042;SDS011;65975;53.936;27.540;2022-12-18T06:51:31;15.27;;;9.47;;
77042;SDS011;65975;53.936;27.540;2022-12-18T06:53:56;14.60;;;9.20;;
77042;SDS011;65975;53.936;27.540;2022-12-18T06:56:22;13.43;;;9.20;;
77042;SDS011;65975;53.936;27.540;2022-12-18T06:58:50;19.43;;;8.87;;
77042;SDS011;65975;53.936;27.540;2022-12-18T07:01:15;9.70;;;7.07;;
77042;SDS011;65975;53.936;27.540;2022-12-18T07:03:41;14.13;;;7.83;;
77042;SDS011;65975;53.936;27.540;2022-12-18T07:06:12;13.53;;;7.57;;
77042;SDS011;65975;53.936;27.540;2022-12-18T07:08:42;15.30;;;8.67;;
77042;SDS011;65975;53.936;27.540;2022-12-18T07:11:08;13.40;;;7.33;;
77042;SDS011;65975;53.936;27.540;2022-12-18T07:13:33;15.20;;;8.07;;
77042;SDS011;65975;53.936;27.540;2022-12-18T07:16:09;15.37;;;9.40;;
77042;SDS011;65975;53.936;27.540;2022-12-18T07:18:36;11.83;;;7.63;;
77042;SDS011;65975;53.936;27.540;2022-12-18T07:21:08;15.90;;;9.07;;
77042;SDS011;65975;53.936;27.540;2022-12-18T07:23:35;18.13;;;9.40;;
77042;SDS011;65975;53.936;27.540;2022-12-18T07:26:04;18.83;;;10.07;;
77042;SDS011;65975;53.936;27.540;2022-12-18T07:28:34;15.75;;;9.30;;
77042;SDS011;65975;53.936;27.540;2022-12-18T07:31:04;16.70;;;9.23;;
77042;SDS011;65975;53.936;27.540;2022-12-18T07:33:37;11.87;;;7.87;;
77042;SDS011;65975;53.936;27.540;2022-12-18T07:36:03;14.23;;;8.40;;
77042;SDS011;65975;53.936;27.540;2022-12-18T07:38:30;17.17;;;10.07;;
77042;SDS011;65975;53.936;27.540;2022-12-18T07:41:00;13.43;;;7.57;;
77042;SDS011;65975;53.936;27.540;2022-12-18T07:43:26;14.47;;;8.53;;
77042;SDS011;65975;53.936;27.540;2022-12-18T07:45:52;15.30;;;9.47;;
77042;SDS011;65975;53.936;27.540;2022-12-18T07:48:17;15.80;;;9.77;;
77042;SDS011;65975;53.936;27.540;2022-12-18T07:50:44;15.30;;;9.47;;
77042;SDS011;65975;53.936;27.540;2022-12-18T07:53:10;13.93;;;8.80;;
77042;SDS011;65975;53.936;27.540;2022-12-18T07:55:35;15.07;;;9.17;;
77042;SDS011;65975;53.936;27.540;2022-12-18T07:58:01;14.93;;;7.80;;
77042;SDS011;65975;53.936;27.540;2022-12-18T08:00:28;18.57;;;9.33;;
77042;SDS011;65975;53.936;27.540;2022-12-18T08:02:53;14.53;;;8.17;;
77042;SDS011;65975;53.936;27.540;2022-12-18T08:05:19;15.37;;;8.53;;
77042;SDS011;65975;53.936;27.540;2022-12-18T08:07:45;11.67;;;7.43;;
77042;SDS011;65975;53.936;27.540;2022-12-18T08:10:11;15.73;;;8.00;;
77042;SDS011;65975;53.936;27.540;2022-12-18T08:12:37;13.40;;;8.67;;
77042;SDS011;65975;53.936;27.540;2022-12-18T08:15:02;14.60;;;8.90;;
77042;SDS011;65975;53.936;27.540;2022-12-18T08:17:28;17.80;;;10.50;;
77042;SDS011;65975;53.936;27.540;2022-12-18T08:19:53;14.80;;;9.47;;
77042;SDS011;65975;53.936;27.540;2022-12-18T08:22:19;21.23;;;10.70;;
77042;SDS011;65975;53.936;27.540;2022-12-18T08:24:44;19.43;;;11.10;;
77042;SDS011;65975;53.936;27.540;2022-12-18T08:27:10;19.20;;;10.10;;
77042;SDS011;65975;53.936;27.540;2022-12-18T08:29:35;14.60;;;8.70;;
77042;SDS011;65975;53.936;27.540;2022-12-18T08:32:01;19.97;;;11.43;;
77042;SDS011;65975;53.936;27.540;2022-12-18T08:34:26;15.83;;;10.13;;
77042;SDS011;65975;53.936;27.540;2022-12-18T08:36:52;18.87;;;9.90;;
77042;SDS011;65975;53.936;27.540;2022-12-18T08:39:18;11.77;;;8.50;;
77042;SDS011;65975;53.936;27.540;2022-12-18T08:41:43;12.87;;;7.13;;
77042;SDS011;65975;53.936;27.540;2022-12-18T08:44:28;14.60;;;9.07;;
77042;SDS011;65975;53.936;27.540;2022-12-18T08:47:03;11.63;;;7.77;;
77042;SDS011;65975;53.936;27.540;2022-12-18T08:49:30;11.87;;;8.07;;
77042;SDS011;65975;53.936;27.540;2022-12-18T08:51:55;15.83;;;8.43;;
77042;SDS011;65975;53.936;27.540;2022-12-18T08:54:24;13.63;;;8.73;;
77042;SDS011;65975;53.936;27.540;2022-12-18T08:56:50;14.97;;;8.53;;
77042;SDS011;65975;53.936;27.540;2022-12-18T08:59:16;16.87;;;9.80;;
77042;SDS011;65975;53.936;27.540;2022-12-18T09:01:42;13.90;;;8.97;;
77042;SDS011;65975;53.936;27.540;2022-12-18T09:04:11;12.60;;;8.97;;
77042;SDS011;65975;53.936;27.540;2022-12-18T09:06:37;13.50;;;9.10;;
77042;SDS011;65975;53.936;27.540;2022-12-18T09:09:03;13.40;;;9.33;;
77042;SDS011;65975;53.936;27.540;2022-12-18T09:11:29;18.50;;;10.57;;
77042;SDS011;65975;53.936;27.540;2022-12-18T09:13:56;15.30;;;9.43;;
77042;SDS011;65975;53.936;27.540;2022-12-18T09:16:23;18.27;;;9.67;;
77042;SDS011;65975;53.936;27.540;2022-12-18T09:18:50;22.40;;;13.80;;
77042;SDS011;65975;53.936;27.540;2022-12-18T09:21:17;18.00;;;10.00;;
77042;SDS011;65975;53.936;27.540;2022-12-18T09:23:45;11.07;;;7.20;;
77042;SDS011;65975;53.936;27.540;2022-12-18T09:26:14;15.33;;;10.10;;
77042;SDS011;65975;53.936;27.540;2022-12-18T09:28:40;12.63;;;8.87;;
77042;SDS011;65975;53.936;27.540;2022-12-18T09:31:06;16.67;;;9.53;;
77042;SDS011;65975;53.936;27.540;2022-12-18T09:33:34;12.50;;;8.23;;
77042;SDS011;65975;53.936;27.540;2022-12-18T09:36:01;18.37;;;10.73;;
77042;SDS011;65975;53.936;27.540;2022-12-18T09:38:31;10.67;;;6.37;;
77042;SDS011;65975;53.936;27.540;2022-12-18T09:40:59;12.87;;;8.63;;
77042;SDS011;65975;53.936;27.540;2022-12-18T09:43:36;19.83;;;10.17;;
77042;SDS011;65975;53.936;27.540;2022-12-18T09:46:09;13.87;;;9.07;;
77042;SDS011;65975;53.936;27.540;2022-12-18T09:48:41;13.07;;;9.63;;
77042;SDS011;65975;53.936;27.540;2022-12-18T09:51:21;16.00;;;10.00;;
77042;SDS011;65975;53.936;27.540;2022-12-18T09:53:52;12.60;;;9.70;;
77042;SDS011;65975;53.936;27.540;2022-12-18T09:56:24;13.90;;;9.27;;
77042;SDS011;65975;53.936;27.540;2022-12-18T09:58:55;9.67;;;7.13;;
77042;SDS011;65975;53.936;27.540;2022-12-18T10:01:24;13.37;;;8.93;;
77042;SDS011;65975;53.936;27.540;2022-12-18T10:03:51;15.13;;;9.90;;
77042;SDS011;65975;53.936;27.540;2022-12-18T10:06:23;13.70;;;8.87;;
77042;SDS011;65975;53.936;27.540;2022-12-18T10:17:33;15.37;;;9.77;;
77042;SDS011;65975;53.936;27.540;2022-12-18T10:20:29;13.27;;;9.33;;
77042;SDS011;65975;53.936;27.540;2022-12-18T10:23:02;12.13;;;8.10;;
77042;SDS011;65975;53.936;27.540;2022-12-18T10:25:41;13.10;;;8.57;;
77042;SDS011;65975;53.936;27.540;2022-12-18T10:28:32;13.00;;;7.27;;
77042;SDS011;65975;53.936;27.540;2022-12-18T10:31:01;13.87;;;8.47;;
77042;SDS011;65975;53.936;27.540;2022-12-18T10:33:30;12.73;;;8.17;;
77042;SDS011;65975;53.936;27.540;2022-12-18T10:35:57;17.03;;;8.27;;
77042;SDS011;65975;53.936;27.540;2022-12-18T10:38:24;13.10;;;8.50;;
77042;SDS011;65975;53.936;27.540;2022-12-18T10:40:56;11.57;;;8.03;;
77042;SDS011;65975;53.936;27.540;2022-12-18T10:43:33;11.60;;;8.43;;
77042;SDS011;65975;53.936;27.540;2022-12-18T10:54:14;25.63;;;12.80;;
77042;SDS011;65975;53.936;27.540;2022-12-18T10:56:40;19.70;;;10.97;;
77042;SDS011;65975;53.936;27.540;2022-12-18T10:59:07;20.57;;;11.37;;
77042;SDS011;65975;53.936;27.540;2022-12-18T11:01:51;22.17;;;11.20;;
77042;SDS011;65975;53.936;27.540;2022-12-18T11:04:25;20.93;;;10.07;;
77042;SDS011;65975;53.936;27.540;2022-12-18T11:09:27;21.27;;;11.63;;
77042;SDS011;65975;53.936;27.540;2022-12-18T11:11:57;27.30;;;13.33;;
77042;SDS011;65975;53.936;27.540;2022-12-18T11:14:42;25.97;;;14.30;;
77042;SDS011;65975;53.936;27.540;2022-12-18T11:17:22;23.03;;;12.53;;
77042;SDS011;65975;53.936;27.540;2022-12-18T11:19:55;23.50;;;13.13;;
77042;SDS011;65975;53.936;27.540;2022-12-18T11:22:26;23.37;;;13.83;;
77042;SDS011;65975;53.936;27.540;2022-12-18T11:27:50;25.97;;;13.63;;
77042;SDS011;65975;53.936;27.540;2022-12-18T11:30:30;27.37;;;13.67;;
77042;SDS011;65975;53.936;27.540;2022-12-18T11:33:18;27.20;;;14.53;;
77042;SDS011;65975;53.936;27.540;2022-12-18T11:40:55;34.13;;;20.58;;
77042;SDS011;65975;53.936;27.540;2022-12-18T11:46:26;29.20;;;15.20;;
77042;SDS011;65975;53.936;27.540;2022-12-18T11:51:51;30.27;;;17.00;;
77042;SDS011;65975;53.936;27.540;2022-12-18T11:54:23;25.13;;;14.73;;
77042;SDS011;65975;53.936;27.540;2022-12-18T11:56:51;22.10;;;14.27;;
77042;SDS011;65975;53.936;27.540;2022-12-18T12:07:42;28.87;;;17.17;;
77042;SDS011;65975;53.936;27.540;2022-12-18T12:10:36;20.43;;;13.37;;
77042;SDS011;65975;53.936;27.540;2022-12-18T12:21:07;27.60;;;17.92;;
77042;SDS011;65975;53.936;27.540;2022-12-18T12:29:46;24.83;;;15.13;;
77042;SDS011;65975;53.936;27.540;2022-12-18T12:32:22;21.67;;;12.30;;
77042;SDS011;65975;53.936;27.540;2022-12-18T12:40:49;16.97;;;10.17;;
77042;SDS011;65975;53.936;27.540;2022-12-18T12:43:24;13.27;;;7.97;;
77042;SDS011;65975;53.936;27.540;2022-12-18T12:51:14;17.33;;;9.63;;
77042;SDS011;65975;53.936;27.540;2022-12-18T12:53:40;13.87;;;8.67;;
77042;SDS011;65975;53.936;27.540;2022-12-18T12:56:06;16.60;;;10.43;;
77042;SDS011;65975;53.936;27.540;2022-12-18T12:58:41;12.87;;;8.83;;
77042;SDS011;65975;53.936;27.540;2022-12-18T13:04:03;15.93;;;9.23;;
77042;SDS011;65975;53.936;27.540;2022-12-18T13:06:45;16.30;;;9.77;;
77042;SDS011;65975;53.936;27.540;2022-12-18T13:09:19;22.37;;;11.67;;
77042;SDS011;65975;53.936;27.540;2022-12-18T13:11:45;15.53;;;9.90;;
77042;SDS011;65975;53.936;27.540;2022-12-18T13:14:37;19.63;;;11.67;;
77042;SDS011;65975;53.936;27.540;2022-12-18T13:19:49;22.20;;;12.40;;
77042;SDS011;65975;53.936;27.540;2022-12-18T13:22:28;16.33;;;9.83;;
77042;SDS011;65975;53.936;27.540;2022-12-18T13:24:59;18.37;;;11.10;;
77042;SDS011;65975;53.936;27.540;2022-12-18T13:38:23;17.87;;;10.97;;
77042;SDS011;65975;53.936;27.540;2022-12-18T13:40:55;22.10;;;10.80;;
77042;SDS011;65975;53.936;27.540;2022-12-18T13:43:23;20.93;;;13.33;;
77042;SDS011;65975;53.936;27.540;2022-12-18T13:51:21;21.77;;;12.60;;
77042;SDS011;65975;53.936;27.540;2022-12-18T13:53:49;20.83;;;12.20;;
77042;SDS011;65975;53.936;27.540;2022-12-18T13:56:25;22.33;;;11.40;;
77042;SDS011;65975;53.936;27.540;2022-12-18T14:01:57;18.43;;;10.57;;
77042;SDS011;65975;53.936;27.540;2022-12-18T14:09:42;19.27;;;10.63;;
77042;SDS011;65975;53.936;27.540;2022-12-18T14:12:21;13.63;;;9.43;;
77042;SDS011;65975;53.936;27.540;2022-12-18T14:18:17;19.60;;;10.93;;
77042;SDS011;65975;53.936;27.540;2022-12-18T14:20:50;18.73;;;12.70;;
77042;SDS011;65975;53.936;27.540;2022-12-18T14:23:59;16.77;;;9.27;;
77042;SDS011;65975;53.936;27.540;2022-12-18T14:26:20;15.70;;;8.67;;
77042;SDS011;65975;53.936;27.540;2022-12-18T14:28:53;13.90;;;9.53;;
77042;SDS011;65975;53.936;27.540;2022-12-18T14:31:23;16.00;;;8.60;;
77042;SDS011;65975;53.936;27.540;2022-12-18T14:33:50;19.43;;;9.93;;
77042;SDS011;65975;53.936;27.540;2022-12-18T14:36:18;19.00;;;10.60;;
77042;SDS011;65975;53.936;27.540;2022-12-18T14:38:49;21.73;;;12.87;;
77042;SDS011;65975;53.936;27.540;2022-12-18T14:41:17;17.00;;;9.83;;
77042;SDS011;65975;53.936;27.540;2022-12-18T14:43:45;14.80;;;9.33;;
77042;SDS011;65975;53.936;27.540;2022-12-18T14:51:52;16.73;;;10.52;;
77042;SDS011;65975;53.936;27.540;2022-12-18T14:54:19;18.33;;;10.87;;
77042;SDS011;65975;53.936;27.540;2022-12-18T14:56:48;17.27;;;11.00;;
77042;SDS011;65975;53.936;27.540;2022-12-18T14:59:23;16.80;;;10.30;;
77042;SDS011;65975;53.936;27.540;2022-12-18T15:05:04;18.27;;;11.10;;
77042;SDS011;65975;53.936;27.540;2022-12-18T15:07:45;14.47;;;9.73;;
77042;SDS011;65975;53.936;27.540;2022-12-18T15:10:14;16.27;;;8.97;;
77042;SDS011;65975;53.936;27.540;2022-12-18T15:12:43;18.07;;;9.37;;
77042;SDS011;65975;53.936;27.540;2022-12-18T15:15:46;16.20;;;9.53;;
77042;SDS011;65975;53.936;27.540;2022-12-18T15:21:18;14.53;;;9.07;;
77042;SDS011;65975;53.936;27.540;2022-12-18T15:23:45;25.97;;;13.83;;
77042;SDS011;65975;53.936;27.540;2022-12-18T15:26:14;21.77;;;11.80;;
77042;SDS011;65975;53.936;27.540;2022-12-18T15:28:46;29.30;;;14.77;;
77042;SDS011;65975;53.936;27.540;2022-12-18T15:33:39;18.93;;;12.63;;
77042;SDS011;65975;53.936;27.540;2022-12-18T15:36:13;21.70;;;13.30;;
77042;SDS011;65975;53.936;27.540;2022-12-18T15:38:40;33.40;;;14.63;;
77042;SDS011;65975;53.936;27.540;2022-12-18T15:41:11;19.27;;;11.33;;
77042;SDS011;65975;53.936;27.540;2022-12-18T15:43:39;26.97;;;15.60;;
77042;SDS011;65975;53.936;27.540;2022-12-18T15:46:06;30.67;;;16.83;;
77042;SDS011;65975;53.936;27.540;2022-12-18T15:48:38;26.47;;;15.37;;
77042;SDS011;65975;53.936;27.540;2022-12-18T15:51:13;24.13;;;13.83;;
77042;SDS011;65975;53.936;27.540;2022-12-18T15:53:42;25.63;;;14.77;;
77042;SDS011;65975;53.936;27.540;2022-12-18T15:56:13;20.10;;;13.13;;
77042;SDS011;65975;53.936;27.540;2022-12-18T15:58:59;20.23;;;12.60;;
77042;SDS011;65975;53.936;27.540;2022-12-18T16:01:26;15.60;;;9.67;;
77042;SDS011;65975;53.936;27.540;2022-12-18T16:03:55;29.30;;;15.13;;
77042;SDS011;65975;53.936;27.540;2022-12-18T16:06:21;28.17;;;15.53;;
77042;SDS011;65975;53.936;27.540;2022-12-18T16:08:47;34.80;;;19.00;;
77042;SDS011;65975;53.936;27.540;2022-12-18T16:11:19;41.27;;;21.97;;
77042;SDS011;65975;53.936;27.540;2022-12-18T16:14:40;30.33;;;17.23;;
77042;SDS011;65975;53.936;27.540;2022-12-18T16:17:00;23.23;;;13.37;;
77042;SDS011;65975;53.936;27.540;2022-12-18T16:19:28;19.27;;;11.60;;
77042;SDS011;65975;53.936;27.540;2022-12-18T16:21:55;25.13;;;14.63;;
77042;SDS011;65975;53.936;27.540;2022-12-18T16:24:26;17.83;;;11.60;;
77042;SDS011;65975;53.936;27.540;2022-12-18T16:26:53;20.97;;;12.33;;
77042;SDS011;65975;53.936;27.540;2022-12-18T16:29:25;22.83;;;12.40;;
77042;SDS011;65975;53.936;27.540;2022-12-18T16:31:56;20.30;;;12.30;;
77042;SDS011;65975;53.936;27.540;2022-12-18T16:34:24;18.23;;;10.27;;
77042;SDS011;65975;53.936;27.540;2022-12-18T16:36:58;20.63;;;12.50;;
77042;SDS011;65975;53.936;27.540;2022-12-18T16:39:28;19.37;;;12.07;;
77042;SDS011;65975;53.936;27.540;2022-12-18T16:41:55;23.13;;;11.20;;
77042;SDS011;65975;53.936;27.540;2022-12-18T16:44:22;23.40;;;13.20;;
77042;SDS011;65975;53.936;27.540;2022-12-18T16:46:48;23.47;;;12.87;;
77042;SDS011;65975;53.936;27.540;2022-12-18T16:49:15;22.27;;;13.43;;